createdAt,value
2022-12-08T00:01:32.596Z,0.70
2022-12-08T00:04:01.981Z,0.70
2022-12-08T00:06:48.565Z,0.70
2022-12-08T00:09:24.924Z,0.70
2022-12-08T00:11:55.716Z,0.70
2022-12-08T00:14:32.633Z,0.80
2022-12-08T00:17:01.481Z,0.70
2022-12-08T00:19:29.749Z,0.80
2022-12-08T00:21:58.145Z,0.80
2022-12-08T00:24:31.092Z,0.80
2022-12-08T00:26:59.049Z,0.80
2022-12-08T00:29:26.941Z,0.70
2022-12-08T00:31:56.243Z,0.80
2022-12-08T00:34:24.251Z,0.80
2022-12-08T00:36:52.159Z,0.70
2022-12-08T00:39:20.113Z,0.70
2022-12-08T00:42:05.929Z,0.70
2022-12-08T00:44:33.898Z,0.70
2022-12-08T00:47:03.129Z,0.70
2022-12-08T00:49:31.048Z,0.70
2022-12-08T00:51:58.924Z,0.70
2022-12-08T00:54:26.864Z,0.80
2022-12-08T00:56:54.781Z,0.80
2022-12-08T00:59:22.647Z,0.80
2022-12-08T01:01:50.719Z,0.90
2022-12-08T01:04:21.224Z,0.90
2022-12-08T01:06:49.601Z,0.90
2022-12-08T01:09:19.027Z,0.90
2022-12-08T01:11:47.192Z,0.90
2022-12-08T01:14:15.611Z,0.90
2022-12-08T01:16:44.061Z,0.90
2022-12-08T01:19:13.172Z,1.00
2022-12-08T01:21:42.738Z,0.90
2022-12-08T01:24:13.065Z,1.00
2022-12-08T01:26:41.453Z,1.00
2022-12-08T01:29:09.506Z,1.00
2022-12-08T01:31:37.655Z,1.00
2022-12-08T01:34:06.072Z,1.00
2022-12-08T01:36:37.041Z,1.00
2022-12-08T01:39:08.411Z,1.10
2022-12-08T01:41:38.563Z,1.00
2022-12-08T01:44:39.119Z,1.00
2022-12-08T01:47:07.079Z,1.10
2022-12-08T01:49:36.855Z,1.10
2022-12-08T01:52:11.887Z,1.10
2022-12-08T01:54:47.259Z,1.10
2022-12-08T01:57:21.652Z,1.10
2022-12-08T01:59:55.591Z,1.10
2022-12-08T02:02:25.172Z,1.10
2022-12-08T02:04:53.168Z,1.10
2022-12-08T02:07:22.875Z,1.10
2022-12-08T02:09:54.071Z,1.00
2022-12-08T02:12:22.187Z,1.10
2022-12-08T02:14:50.180Z,1.00
2022-12-08T02:17:34.627Z,1.00
2022-12-08T02:20:32.163Z,1.00
2022-12-08T02:23:07.659Z,1.00
2022-12-08T02:25:47.983Z,1.00
2022-12-08T02:28:48.839Z,1.00
2022-12-08T02:31:28.095Z,1.00
2022-12-08T02:34:15.972Z,1.10
2022-12-08T02:36:55.759Z,1.10
2022-12-08T02:39:34.251Z,1.10
2022-12-08T02:42:09.554Z,1.10
2022-12-08T02:44:42.583Z,1.20
2022-12-08T02:47:15.021Z,1.20
2022-12-08T02:49:44.339Z,1.20
2022-12-08T02:52:43.058Z,1.20
2022-12-08T02:55:19.032Z,1.20
2022-12-08T02:58:06.186Z,1.20
2022-12-08T03:00:44.497Z,1.20
2022-12-08T03:03:25.755Z,1.20
2022-12-08T03:06:06.553Z,1.10
2022-12-08T03:08:39.938Z,1.10
2022-12-08T03:11:12.604Z,1.10
2022-12-08T03:13:43.259Z,1.10
2022-12-08T03:16:15.630Z,1.10
2022-12-08T03:18:49.063Z,1.00
2022-12-08T03:21:20.427Z,1.00
2022-12-08T03:23:51.978Z,1.00
2022-12-08T03:26:24.026Z,1.10
2022-12-08T03:28:51.990Z,1.10
2022-12-08T03:31:22.189Z,1.10
2022-12-08T03:33:53.135Z,1.10
2022-12-08T03:36:23.155Z,1.10
2022-12-08T03:38:53.735Z,1.10
2022-12-08T03:41:23.078Z,1.10
2022-12-08T03:43:52.641Z,1.10
2022-12-08T03:48:48.925Z,1.00
2022-12-08T03:51:17.916Z,1.00
2022-12-08T03:53:48.045Z,1.10
2022-12-08T03:56:20.966Z,1.10
2022-12-08T03:58:48.902Z,1.10
2022-12-08T04:01:17.681Z,1.10
2022-12-08T04:03:45.591Z,1.10
2022-12-08T04:06:13.565Z,1.00
2022-12-08T04:08:41.777Z,1.00
2022-12-08T04:11:11.577Z,0.90
2022-12-08T04:13:41.341Z,0.90
2022-12-08T04:16:09.867Z,0.80
2022-12-08T04:18:37.822Z,0.90
2022-12-08T04:21:05.988Z,0.90
2022-12-08T04:23:33.878Z,0.90
2022-12-08T04:26:01.767Z,0.90
2022-12-08T04:28:31.034Z,0.90
2022-12-08T04:30:59.035Z,0.90
2022-12-08T04:33:26.981Z,0.90
2022-12-08T04:35:54.931Z,0.80
2022-12-08T04:38:22.968Z,0.80
2022-12-08T04:40:50.917Z,0.80
2022-12-08T04:43:18.840Z,0.80
2022-12-08T04:45:48.221Z,0.80
2022-12-08T04:48:16.446Z,0.80
2022-12-08T04:50:46.172Z,0.70
2022-12-08T04:53:14.997Z,0.70
2022-12-08T04:55:44.792Z,0.70
2022-12-08T04:58:14.733Z,0.70
2022-12-08T05:00:42.867Z,0.70
2022-12-08T05:03:12.587Z,0.70
2022-12-08T05:05:40.484Z,0.70
2022-12-08T05:08:08.573Z,0.60
2022-12-08T05:10:37.901Z,0.70
2022-12-08T05:13:05.844Z,0.60
2022-12-08T05:15:33.860Z,0.60
2022-12-08T05:18:01.779Z,0.60
2022-12-08T05:20:31.036Z,0.50
2022-12-08T05:22:58.948Z,0.50
2022-12-08T05:25:26.849Z,0.40
2022-12-08T05:28:06.122Z,0.40
2022-12-08T05:30:42.632Z,0.40
2022-12-08T05:33:10.711Z,0.30
2022-12-08T05:35:39.996Z,0.20
2022-12-08T05:38:08.245Z,0.20
2022-12-08T05:40:38.004Z,0.10
2022-12-08T05:43:05.928Z,0.00
2022-12-08T05:45:34.051Z,0.00
2022-12-08T05:48:01.999Z,-0.10
2022-12-08T05:50:29.913Z,-0.20
2022-12-08T05:52:59.131Z,-0.20
2022-12-08T05:55:27.054Z,-0.30
2022-12-08T05:57:54.947Z,-0.20
2022-12-08T06:00:23.127Z,-0.20
2022-12-08T06:02:51.147Z,-0.20
2022-12-08T06:05:19.138Z,-0.20
2022-12-08T06:07:47.062Z,-0.20
2022-12-08T06:10:16.375Z,-0.20
2022-12-08T06:12:44.535Z,-0.30
2022-12-08T06:15:12.623Z,-0.30
2022-12-08T06:17:40.479Z,-0.30
2022-12-08T06:20:09.381Z,-0.40
2022-12-08T06:22:37.834Z,-0.40
2022-12-08T06:25:09.845Z,-0.40
2022-12-08T06:27:39.557Z,-0.40
2022-12-08T06:30:08.936Z,-0.40
2022-12-08T06:32:38.483Z,-0.50
2022-12-08T06:35:07.215Z,-0.50
2022-12-08T06:37:35.150Z,-0.40
2022-12-08T06:40:03.636Z,-0.40
2022-12-08T06:42:47.316Z,-0.50
2022-12-08T06:45:18.567Z,-0.30
2022-12-08T06:47:46.542Z,-0.50
2022-12-08T06:50:14.998Z,-0.50
2022-12-08T06:52:54.335Z,-0.60
2022-12-08T06:55:59.254Z,-0.80
2022-12-08T06:58:16.922Z,-0.60
2022-12-08T07:00:46.459Z,0.00
2022-12-08T07:03:14.934Z,-0.50
2022-12-08T07:05:42.836Z,-0.50
2022-12-08T07:08:11.416Z,-0.60
2022-12-08T07:10:39.385Z,-0.40
2022-12-08T07:13:07.341Z,-0.20
2022-12-08T07:15:35.258Z,-0.60
2022-12-08T07:18:04.705Z,0.30
2022-12-08T07:20:32.633Z,-0.60
2022-12-08T07:23:00.534Z,-0.70
2022-12-08T07:25:28.646Z,-0.50
2022-12-08T07:27:56.587Z,-0.70
2022-12-08T07:30:24.475Z,-0.50
2022-12-08T07:32:52.476Z,-0.50
2022-12-08T07:35:23.107Z,-0.80
2022-12-08T07:37:51.231Z,-0.50
2022-12-08T07:40:19.341Z,-0.40
2022-12-08T07:42:47.243Z,-0.40
2022-12-08T07:45:15.182Z,-0.20
2022-12-08T07:47:43.074Z,-0.50
2022-12-08T07:50:11.193Z,-0.50
2022-12-08T07:52:40.428Z,-0.30
2022-12-08T07:55:09.281Z,-0.30
2022-12-08T07:57:37.154Z,-0.50
2022-12-08T08:00:06.366Z,-0.50
2022-12-08T08:02:34.594Z,-0.30
2022-12-08T08:05:02.920Z,0.30
2022-12-08T08:07:32.286Z,-0.40
2022-12-08T08:10:01.644Z,-0.20
2022-12-08T08:12:31.702Z,-0.20
2022-12-08T08:15:01.116Z,-0.10
2022-12-08T08:17:29.724Z,-0.10
2022-12-08T08:19:58.224Z,-0.10
2022-12-08T08:22:26.425Z,-0.20
2022-12-08T08:24:54.865Z,-0.10
2022-12-08T08:27:25.086Z,0.00
2022-12-08T08:29:53.012Z,-0.10
2022-12-08T08:34:49.524Z,0.10
2022-12-08T08:37:17.610Z,0.20
2022-12-08T08:39:45.606Z,0.20
2022-12-08T08:42:13.495Z,-0.20
2022-12-08T08:44:42.724Z,0.10
2022-12-08T08:47:10.688Z,0.30
2022-12-08T08:52:07.577Z,0.30
2022-12-08T08:54:35.617Z,0.20
2022-12-08T08:57:03.684Z,0.20
2022-12-08T08:59:31.672Z,0.40
2022-12-08T09:02:00.982Z,0.10
2022-12-08T09:04:29.057Z,0.50
2022-12-08T09:06:57.064Z,0.20
2022-12-08T09:09:24.958Z,0.60
2022-12-08T09:11:52.841Z,0.60
2022-12-08T09:14:21.032Z,0.20
2022-12-08T09:16:48.953Z,0.40
2022-12-08T09:19:18.375Z,0.40
2022-12-08T09:21:46.348Z,0.40
2022-12-08T09:24:16.503Z,0.40
2022-12-08T09:26:45.089Z,0.40
2022-12-08T09:29:14.641Z,0.40
2022-12-08T09:31:43.145Z,0.60
2022-12-08T09:34:12.288Z,0.10
2022-12-08T09:36:41.891Z,0.30
2022-12-08T09:39:09.845Z,0.70
2022-12-08T09:41:46.405Z,0.50
2022-12-08T09:44:45.999Z,0.60
2022-12-08T09:47:30.636Z,0.50
2022-12-08T09:50:07.552Z,0.60
2022-12-08T09:52:42.459Z,0.30
2022-12-08T09:55:19.032Z,0.50
2022-12-08T09:57:56.242Z,0.70
2022-12-08T10:00:24.648Z,0.50
2022-12-08T10:02:52.748Z,0.40
2022-12-08T10:05:21.786Z,0.00
2022-12-08T10:08:04.698Z,0.20
2022-12-08T10:10:40.164Z,0.50
2022-12-08T10:13:17.672Z,0.60
2022-12-08T10:15:50.890Z,0.50
2022-12-08T10:18:20.463Z,0.50
2022-12-08T10:20:50.898Z,0.70
2022-12-08T10:23:30.878Z,0.80
2022-12-08T10:26:02.886Z,1.30
2022-12-08T10:28:32.072Z,0.60
2022-12-08T10:31:00.065Z,0.50
2022-12-08T10:33:29.137Z,0.60
2022-12-08T10:35:59.252Z,0.60
2022-12-08T10:38:32.814Z,0.60
2022-12-08T10:41:05.851Z,0.60
2022-12-08T10:43:35.360Z,0.60
2022-12-08T10:46:11.880Z,0.60
2022-12-08T10:48:49.688Z,1.10
2022-12-08T10:51:26.615Z,0.60
2022-12-08T10:53:56.185Z,0.60
2022-12-08T10:56:28.526Z,0.60
2022-12-08T10:59:12.878Z,0.60
2022-12-08T11:01:42.567Z,0.70
2022-12-08T11:04:16.307Z,0.70
2022-12-08T11:06:44.948Z,0.70
2022-12-08T11:09:31.695Z,0.70
2022-12-08T11:12:00.968Z,0.80
2022-12-08T11:14:31.154Z,0.80
2022-12-08T11:17:06.826Z,0.80
2022-12-08T11:19:38.684Z,0.80
2022-12-08T11:22:22.721Z,0.80
2022-12-08T11:25:02.354Z,0.90
2022-12-08T11:27:30.346Z,0.90
2022-12-08T11:29:58.228Z,0.90
2022-12-08T11:32:26.116Z,0.80
2022-12-08T11:34:58.369Z,0.80
2022-12-08T11:37:34.617Z,0.90
2022-12-08T11:40:08.039Z,0.90
2022-12-08T11:42:44.540Z,0.90
2022-12-08T11:45:18.426Z,0.90
2022-12-08T11:47:55.618Z,0.90
2022-12-08T11:50:29.407Z,0.90
2022-12-08T11:52:59.497Z,1.00
2022-12-08T11:55:38.951Z,1.00
2022-12-08T11:58:15.533Z,1.10
2022-12-08T12:00:43.547Z,1.00
2022-12-08T12:03:23.501Z,1.10
2022-12-08T12:06:18.224Z,1.10
2022-12-08T12:09:01.459Z,1.10
2022-12-08T12:11:56.176Z,1.10
2022-12-08T12:14:47.380Z,1.20
2022-12-08T12:17:36.332Z,1.20
2022-12-08T12:20:16.316Z,1.20
2022-12-08T12:22:47.739Z,1.50
2022-12-08T12:25:22.108Z,1.70
2022-12-08T12:27:57.139Z,1.30
2022-12-08T12:30:27.404Z,1.30
2022-12-08T12:32:59.288Z,1.40
2022-12-08T12:35:35.467Z,1.40
2022-12-08T12:38:28.304Z,1.40
2022-12-08T12:41:02.196Z,1.40
2022-12-08T12:43:33.790Z,1.40
2022-12-08T12:46:42.621Z,1.50
2022-12-08T12:49:48.747Z,1.50
2022-12-08T12:52:44.090Z,1.50
2022-12-08T12:55:23.519Z,1.50
2022-12-08T12:57:54.295Z,1.60
2022-12-08T13:00:25.376Z,1.60
2022-12-08T13:02:55.288Z,1.60
2022-12-08T13:05:26.646Z,1.60
2022-12-08T13:07:57.812Z,1.60
2022-12-08T13:10:27.713Z,1.60
2022-12-08T13:13:08.466Z,1.60
2022-12-08T13:15:40.250Z,1.60
2022-12-08T13:18:17.567Z,1.60
2022-12-08T13:20:51.422Z,1.70
2022-12-08T13:23:45.252Z,1.70
2022-12-08T13:26:23.510Z,1.70
2022-12-08T13:29:21.052Z,1.70
2022-12-08T13:31:53.283Z,1.70
2022-12-08T13:34:26.730Z,1.70
2022-12-08T13:37:02.110Z,1.70
2022-12-08T13:39:34.923Z,1.70
2022-12-08T13:42:08.102Z,1.70
2022-12-08T13:45:20.183Z,1.70
2022-12-08T13:47:37.190Z,1.70
2022-12-08T13:53:49.632Z,1.70
2022-12-08T13:58:41.842Z,1.80
2022-12-08T14:01:14.887Z,1.80
2022-12-08T14:04:12.777Z,1.80
2022-12-08T14:06:40.119Z,1.80
2022-12-08T14:09:13.713Z,1.70
2022-12-08T14:11:44.846Z,1.70
2022-12-08T14:14:32.825Z,1.70
2022-12-08T14:17:07.971Z,1.70
2022-12-08T14:19:37.322Z,1.70
2022-12-08T14:22:12.855Z,1.70
2022-12-08T14:24:41.648Z,1.70
2022-12-08T14:27:14.530Z,1.70
2022-12-08T14:29:46.202Z,1.70
2022-12-08T14:32:33.073Z,1.70
2022-12-08T14:35:13.447Z,1.70
2022-12-08T14:37:44.482Z,1.70
2022-12-08T14:40:23.695Z,1.70
2022-12-08T14:42:54.280Z,1.70
2022-12-08T14:45:22.417Z,1.70
2022-12-08T14:47:51.207Z,1.70
2022-12-08T14:50:40.428Z,1.70
2022-12-08T14:53:15.055Z,1.80
2022-12-08T14:55:46.145Z,1.80
2022-12-08T14:58:19.745Z,1.80
2022-12-08T15:00:49.693Z,1.80
2022-12-08T15:03:18.678Z,1.80
2022-12-08T15:05:52.549Z,1.80
2022-12-08T15:08:20.573Z,1.80
2022-12-08T15:11:08.604Z,1.80
2022-12-08T15:13:36.507Z,1.80
2022-12-08T15:16:19.386Z,1.80
2022-12-08T15:19:01.964Z,1.80
2022-12-08T15:21:34.364Z,1.80
2022-12-08T15:24:02.318Z,1.80
2022-12-08T15:26:33.411Z,1.80
2022-12-08T15:29:12.660Z,1.80
2022-12-08T15:31:40.582Z,1.80
2022-12-08T15:34:08.541Z,1.80
2022-12-08T15:36:38.177Z,1.80
2022-12-08T15:39:07.437Z,1.80
2022-12-08T15:41:35.480Z,1.80
2022-12-08T15:44:03.414Z,1.80
2022-12-08T15:46:31.348Z,1.80
2022-12-08T15:48:59.365Z,1.80
2022-12-08T15:51:27.225Z,1.80
2022-12-08T15:53:56.457Z,1.80
2022-12-08T15:56:28.496Z,1.90
2022-12-08T15:58:57.968Z,1.90
2022-12-08T16:01:26.977Z,1.90
2022-12-08T16:09:39.383Z,1.90
2022-12-08T16:12:48.367Z,1.90
2022-12-08T16:18:07.647Z,1.90
2022-12-08T16:21:05.974Z,1.90
2022-12-08T16:23:41.630Z,1.90
2022-12-08T16:26:35.449Z,1.90
2022-12-08T16:29:02.333Z,1.90
2022-12-08T16:31:30.322Z,1.90
2022-12-08T16:33:58.262Z,2.00
2022-12-08T16:36:26.161Z,2.00
2022-12-08T16:38:54.085Z,2.00
2022-12-08T16:41:40.789Z,2.00
2022-12-08T16:44:08.695Z,2.00
2022-12-08T16:46:37.233Z,2.00
2022-12-08T16:49:08.731Z,2.00
2022-12-08T16:51:36.718Z,2.00
2022-12-08T16:54:04.659Z,1.90
2022-12-08T16:56:33.931Z,2.00
2022-12-08T16:59:02.657Z,2.00
2022-12-08T17:01:30.669Z,2.00
2022-12-08T17:04:29.778Z,1.90
2022-12-08T17:06:46.795Z,1.90
2022-12-08T17:09:14.952Z,2.00
2022-12-08T17:11:44.280Z,2.00
2022-12-08T17:14:13.279Z,2.00
2022-12-08T17:16:41.361Z,2.00
2022-12-08T17:19:09.861Z,1.90
2022-12-08T17:21:37.794Z,1.90
2022-12-08T17:24:05.929Z,1.90
2022-12-08T17:26:33.877Z,2.00
2022-12-08T17:29:04.619Z,2.00
2022-12-08T17:31:33.603Z,2.00
2022-12-08T17:34:02.636Z,1.90
2022-12-08T17:36:30.897Z,2.00
2022-12-08T17:39:00.592Z,1.90
2022-12-08T17:41:28.710Z,1.90
2022-12-08T17:43:56.691Z,1.90
2022-12-08T17:46:26.406Z,1.90
2022-12-08T17:48:54.397Z,1.90
2022-12-08T17:51:22.312Z,2.00
2022-12-08T17:53:50.196Z,2.00
2022-12-08T17:56:20.378Z,2.00
2022-12-08T17:58:52.902Z,2.00
2022-12-08T18:01:22.603Z,2.00
2022-12-08T18:03:52.211Z,2.10
2022-12-08T18:06:20.260Z,2.10
2022-12-08T18:08:48.317Z,2.10
2022-12-08T18:11:18.445Z,2.10
2022-12-08T18:13:46.909Z,2.20
2022-12-08T18:16:15.227Z,2.20
2022-12-08T18:18:43.304Z,2.20
2022-12-08T18:21:12.676Z,2.20
2022-12-08T18:23:41.616Z,2.20
2022-12-08T18:26:11.763Z,2.30
2022-12-08T18:28:40.197Z,2.30
2022-12-08T18:31:10.477Z,2.30
2022-12-08T18:33:39.920Z,2.30
2022-12-08T18:36:09.936Z,2.30
2022-12-08T18:38:39.979Z,2.30
2022-12-08T18:41:09.044Z,2.30
2022-12-08T18:43:37.887Z,2.30
2022-12-08T18:46:09.368Z,2.30
2022-12-08T18:48:38.627Z,2.30
2022-12-08T18:51:10.289Z,2.30
2022-12-08T18:53:40.165Z,2.20
2022-12-08T18:56:09.315Z,2.10
2022-12-08T18:58:37.192Z,1.90
2022-12-08T19:01:05.213Z,1.90
2022-12-08T19:03:33.136Z,1.80
2022-12-08T19:06:04.620Z,1.70
2022-12-08T19:08:32.598Z,1.60
2022-12-08T19:11:01.886Z,1.60
2022-12-08T19:13:30.483Z,1.60
2022-12-08T19:15:58.459Z,1.70
2022-12-08T19:18:26.409Z,1.70
2022-12-08T19:20:56.814Z,1.70
2022-12-08T19:23:24.947Z,1.80
2022-12-08T19:25:52.830Z,1.80
2022-12-08T19:28:22.212Z,1.80
2022-12-08T19:30:50.126Z,1.80
2022-12-08T19:33:18.354Z,1.80
2022-12-08T19:35:52.179Z,1.70
2022-12-08T19:38:20.710Z,1.70
2022-12-08T19:41:06.093Z,1.60
2022-12-08T19:43:52.582Z,1.70
2022-12-08T19:46:20.665Z,1.70
2022-12-08T19:48:48.741Z,1.70
2022-12-08T19:51:16.645Z,1.70
2022-12-08T19:53:47.842Z,1.70
2022-12-08T19:56:16.117Z,1.70
2022-12-08T19:58:45.365Z,1.70
2022-12-08T20:01:13.323Z,1.70
2022-12-08T20:03:41.322Z,1.70
2022-12-08T20:06:15.550Z,1.70
2022-12-08T20:08:48.970Z,1.80
2022-12-08T20:11:18.423Z,1.70
2022-12-08T20:13:48.436Z,1.70
2022-12-08T20:16:17.750Z,1.70
2022-12-08T20:18:47.759Z,1.70
2022-12-08T20:21:15.725Z,1.70
2022-12-08T20:23:45.413Z,1.70
2022-12-08T20:26:17.059Z,1.70
2022-12-08T20:28:45.271Z,1.60
2022-12-08T20:31:20.090Z,1.60
2022-12-08T20:33:48.369Z,1.60
2022-12-08T20:36:18.697Z,1.60
2022-12-08T20:38:46.847Z,1.60
2022-12-08T20:41:16.033Z,1.70
2022-12-08T20:43:44.120Z,1.70
2022-12-08T20:46:13.915Z,1.70
2022-12-08T20:48:43.668Z,1.70
2022-12-08T20:51:14.768Z,1.70
2022-12-08T20:53:42.777Z,1.70
2022-12-08T20:56:15.743Z,1.60
2022-12-08T20:58:44.082Z,1.50
2022-12-08T21:01:13.159Z,1.50
2022-12-08T21:03:41.704Z,1.60
2022-12-08T21:06:11.233Z,1.50
2022-12-08T21:08:40.006Z,1.50
2022-12-08T21:11:08.895Z,1.50
2022-12-08T21:13:38.216Z,1.50
2022-12-08T21:16:09.213Z,1.40
2022-12-08T21:18:39.696Z,1.40
2022-12-08T21:21:11.996Z,1.40
2022-12-08T21:23:40.520Z,1.40
2022-12-08T21:26:16.937Z,1.80
2022-12-08T21:28:45.372Z,1.40
2022-12-08T21:31:17.065Z,1.40
2022-12-08T21:33:45.461Z,1.50
2022-12-08T21:36:17.454Z,1.50
2022-12-08T21:38:46.522Z,1.50
2022-12-08T21:41:16.189Z,1.50
2022-12-08T21:43:44.192Z,1.40
2022-12-08T21:46:17.333Z,1.40
2022-12-08T21:48:45.463Z,1.50
2022-12-08T21:51:14.864Z,1.50
2022-12-08T21:53:43.045Z,1.60
2022-12-08T21:56:11.446Z,1.60
2022-12-08T21:58:40.243Z,1.70
2022-12-08T22:01:09.413Z,1.70
2022-12-08T22:03:37.914Z,1.70
2022-12-08T22:06:07.063Z,1.70
2022-12-08T22:08:36.482Z,1.80
2022-12-08T22:11:04.961Z,1.70
2022-12-08T22:13:35.424Z,1.80
2022-12-08T22:16:05.575Z,1.80
2022-12-08T22:18:34.667Z,1.80
2022-12-08T22:21:03.046Z,1.80
2022-12-08T22:23:31.209Z,1.80
2022-12-08T22:26:02.098Z,1.80
2022-12-08T22:28:33.884Z,1.80
2022-12-08T22:31:02.248Z,1.80
2022-12-08T22:33:30.684Z,1.80
2022-12-08T22:36:02.222Z,1.70
2022-12-08T22:38:33.404Z,1.70
2022-12-08T22:41:05.619Z,1.70
2022-12-08T22:43:36.693Z,1.80
2022-12-08T22:46:11.786Z,1.80
2022-12-08T22:48:40.153Z,1.80
2022-12-08T22:51:08.696Z,1.80
2022-12-08T22:53:37.055Z,1.70
2022-12-08T22:56:07.507Z,1.70
2022-12-08T22:58:36.093Z,1.70
2022-12-08T23:01:04.264Z,1.70
2022-12-08T23:03:32.575Z,1.60
2022-12-08T23:06:00.763Z,1.60
2022-12-08T23:08:28.861Z,1.60
2022-12-08T23:10:56.905Z,1.60
2022-12-08T23:13:26.555Z,1.60
2022-12-08T23:15:54.806Z,1.70
2022-12-08T23:18:23.150Z,1.70
2022-12-08T23:20:51.296Z,1.70
2022-12-08T23:23:19.193Z,1.60
2022-12-08T23:25:47.309Z,1.60
2022-12-08T23:31:58.420Z,1.60
2022-12-08T23:34:26.803Z,1.50
2022-12-08T23:36:55.207Z,1.50
2022-12-08T23:39:24.858Z,1.40
2022-12-08T23:41:53.404Z,1.40
2022-12-08T23:44:21.908Z,1.40
2022-12-08T23:46:50.394Z,1.40
2022-12-08T23:49:21.597Z,1.40
2022-12-08T23:51:49.968Z,1.50
2022-12-08T23:54:18.772Z,1.60
2022-12-08T23:56:46.904Z,1.60
2022-12-08T23:59:14.865Z,1.60
